sensor_id;sensor_type;location;lat;lon;timestamp;pressure;altitude;pressure_sealevel;temperature;humidity
46614;BME280;32338;50.430;6.806;2023-04-08T00:02:27;65965.25;;;5.04;100.00
46614;BME280;32338;50.430;6.806;2023-04-08T00:04:53;65967.84;;;5.04;100.00
46614;BME280;32338;50.430;6.806;2023-04-08T00:07:20;65961.25;;;4.93;100.00
46614;BME280;32338;50.430;6.806;2023-04-08T00:09:47;65957.56;;;4.92;100.00
46614;BME280;32338;50.430;6.806;2023-04-08T00:12:13;65972.63;;;4.99;100.00
46614;BME280;32338;50.430;6.806;2023-04-08T00:14:40;65972.88;;;5.09;100.00
46614;BME280;32338;50.430;6.806;2023-04-08T00:17:06;65976.03;;;5.09;100.00
46614;BME280;32338;50.430;6.806;2023-04-08T00:19:34;65977.72;;;5.11;100.00
46614;BME280;32338;50.430;6.806;2023-04-08T00:22:01;65975.28;;;5.06;100.00
46614;BME280;32338;50.430;6.806;2023-04-08T00:24:28;65969.09;;;5.00;100.00
46614;BME280;32338;50.430;6.806;2023-04-08T00:26:54;65970.44;;;5.04;100.00
46614;BME280;32338;50.430;6.806;2023-04-08T00:29:21;65965.59;;;5.02;100.00
46614;BME280;32338;50.430;6.806;2023-04-08T00:31:48;65964.84;;;4.99;100.00
46614;BME280;32338;50.430;6.806;2023-04-08T00:34:15;65968.41;;;5.05;100.00
46614;BME280;32338;50.430;6.806;2023-04-08T00:36:43;65968.75;;;5.02;100.00
46614;BME280;32338;50.430;6.806;2023-04-08T00:39:11;65967.84;;;5.04;100.00
46614;BME280;32338;50.430;6.806;2023-04-08T00:41:38;65968.19;;;5.02;100.00
46614;BME280;32338;50.430;6.806;2023-04-08T00:44:04;65965.81;;;5.05;100.00
46614;BME280;32338;50.430;6.806;2023-04-08T00:46:35;65963.56;;;5.02;100.00
46614;BME280;32338;50.430;6.806;2023-04-08T00:49:04;65961.47;;;4.96;100.00
46614;BME280;32338;50.430;6.806;2023-04-08T00:51:32;65956.97;;;4.92;100.00
46614;BME280;32338;50.430;6.806;2023-04-08T00:54:02;65958.31;;;4.95;100.00
46614;BME280;32338;50.430;6.806;2023-04-08T00:56:30;65957.75;;;4.95;100.00
46614;BME280;32338;50.430;6.806;2023-04-08T00:58:58;65954.38;;;4.92;100.00
46614;BME280;32338;50.430;6.806;2023-04-08T01:01:30;65955.31;;;4.90;100.00
46614;BME280;32338;50.430;6.806;2023-04-08T01:04:04;65946.19;;;4.86;100.00
46614;BME280;32338;50.430;6.806;2023-04-08T01:06:37;65953.63;;;4.89;100.00
46614;BME280;32338;50.430;6.806;2023-04-08T01:09:09;65958.44;;;4.91;100.00
46614;BME280;32338;50.430;6.806;2023-04-08T01:11:41;65959.44;;;4.96;100.00
46614;BME280;32338;50.430;6.806;2023-04-08T01:14:11;65960.56;;;4.97;100.00
46614;BME280;32338;50.430;6.806;2023-04-08T01:16:42;65953.63;;;4.89;100.00
46614;BME280;32338;50.430;6.806;2023-04-08T01:19:14;65949.91;;;4.87;100.00
46614;BME280;32338;50.430;6.806;2023-04-08T01:21:43;65953.25;;;4.91;100.00
46614;BME280;32338;50.430;6.806;2023-04-08T01:24:18;65963.72;;;4.98;100.00
46614;BME280;32338;50.430;6.806;2023-04-08T01:26:50;65954.75;;;4.90;100.00
46614;BME280;32338;50.430;6.806;2023-04-08T01:29:18;65947.09;;;4.85;100.00
46614;BME280;32338;50.430;6.806;2023-04-08T01:31:46;65953.03;;;4.88;100.00
46614;BME280;32338;50.430;6.806;2023-04-08T01:34:14;65954.19;;;4.89;100.00
46614;BME280;32338;50.430;6.806;2023-04-08T01:36:43;65951.38;;;4.86;100.00
46614;BME280;32338;50.430;6.806;2023-04-08T01:39:11;65946.91;;;4.82;100.00
46614;BME280;32338;50.430;6.806;2023-04-08T01:41:39;65937.56;;;4.76;100.00
46614;BME280;32338;50.430;6.806;2023-04-08T01:44:09;65933.44;;;4.70;100.00
46614;BME280;32338;50.430;6.806;2023-04-08T01:46:37;65927.47;;;4.67;100.00
46614;BME280;32338;50.430;6.806;2023-04-08T01:49:06;65923.19;;;4.65;100.00
46614;BME280;32338;50.430;6.806;2023-04-08T01:51:35;65925.03;;;4.62;100.00
46614;BME280;32338;50.430;6.806;2023-04-08T01:54:02;65926.72;;;4.64;100.00
46614;BME280;32338;50.430;6.806;2023-04-08T01:56:32;65930.06;;;4.67;100.00
46614;BME280;32338;50.430;6.806;2023-04-08T01:59:05;65930.63;;;4.67;100.00
46614;BME280;32338;50.430;6.806;2023-04-08T02:01:36;65927.25;;;4.64;100.00
46614;BME280;32338;50.430;6.806;2023-04-08T02:04:04;65924.13;;;4.64;100.00
46614;BME280;32338;50.430;6.806;2023-04-08T02:06:31;65925.97;;;4.61;100.00
46614;BME280;32338;50.430;6.806;2023-04-08T02:08:58;65916.47;;;4.59;100.00
46614;BME280;32338;50.430;6.806;2023-04-08T02:11:25;65920.53;;;4.58;100.00
46614;BME280;32338;50.430;6.806;2023-04-08T02:13:53;65921.09;;;4.59;100.00
46614;BME280;32338;50.430;6.806;2023-04-08T02:16:22;65922.22;;;4.60;100.00
46614;BME280;32338;50.430;6.806;2023-04-08T02:18:58;65922.78;;;4.60;100.00
46614;BME280;32338;50.430;6.806;2023-04-08T02:21:31;65922.59;;;4.58;100.00
46614;BME280;32338;50.430;6.806;2023-04-08T02:24:02;65927.84;;;4.65;100.00
46614;BME280;32338;50.430;6.806;2023-04-08T02:26:32;65924.84;;;4.60;100.00
46614;BME280;32338;50.430;6.806;2023-04-08T02:29:01;65927.84;;;4.65;100.00
46614;BME280;32338;50.430;6.806;2023-04-08T02:31:29;65921.66;;;4.59;100.00
46614;BME280;32338;50.430;6.806;2023-04-08T02:33:58;65924.47;;;4.62;100.00
46614;BME280;32338;50.430;6.806;2023-04-08T02:36:25;65927.84;;;4.65;100.00
46614;BME280;32338;50.430;6.806;2023-04-08T02:38:52;65931.41;;;4.70;100.00
46614;BME280;32338;50.430;6.806;2023-04-08T02:41:18;65928.97;;;4.66;100.00
46614;BME280;32338;50.430;6.806;2023-04-08T02:43:45;65933.66;;;4.73;100.00
46614;BME280;32338;50.430;6.806;2023-04-08T02:46:12;65928.59;;;4.68;100.00
46614;BME280;32338;50.430;6.806;2023-04-08T02:48:39;65925.03;;;4.62;100.00
46614;BME280;32338;50.430;6.806;2023-04-08T02:51:06;65926.72;;;4.64;100.00
46614;BME280;32338;50.430;6.806;2023-04-08T02:53:33;65919.63;;;4.60;100.00
46614;BME280;32338;50.430;6.806;2023-04-08T02:56:00;65928.38;;;4.65;100.00
46614;BME280;32338;50.430;6.806;2023-04-08T02:58:26;65918.31;;;4.56;100.00
46614;BME280;32338;50.430;6.806;2023-04-08T03:00:53;65926.16;;;4.63;100.00
46614;BME280;32338;50.430;6.806;2023-04-08T03:03:20;65921.31;;;4.61;100.00
46614;BME280;32338;50.430;6.806;2023-04-08T03:05:51;65937.38;;;4.74;100.00
46614;BME280;32338;50.430;6.806;2023-04-08T03:08:19;65917.03;;;4.60;100.00
46614;BME280;32338;50.430;6.806;2023-04-08T03:10:46;65916.84;;;4.57;100.00
46614;BME280;32338;50.430;6.806;2023-04-08T03:13:13;65923.00;;;4.63;100.00
46614;BME280;32338;50.430;6.806;2023-04-08T03:15:40;65925.59;;;4.63;100.00
46614;BME280;32338;50.430;6.806;2023-04-08T03:18:07;65925.59;;;4.63;100.00
46614;BME280;32338;50.430;6.806;2023-04-08T03:20:33;65924.47;;;4.62;100.00
46614;BME280;32338;50.430;6.806;2023-04-08T03:23:00;65920.19;;;4.60;100.00
46614;BME280;32338;50.430;6.806;2023-04-08T03:25:28;65918.31;;;4.56;100.00
46614;BME280;32338;50.430;6.806;2023-04-08T03:27:57;65926.16;;;4.63;100.00
46614;BME280;32338;50.430;6.806;2023-04-08T03:30:23;65918.84;;;4.57;100.00
46614;BME280;32338;50.430;6.806;2023-04-08T03:32:50;65915.50;;;4.53;100.00
46614;BME280;32338;50.430;6.806;2023-04-08T03:35:17;65917.59;;;4.60;100.00
46614;BME280;32338;50.430;6.806;2023-04-08T03:37:43;65921.47;;;4.57;100.00
46614;BME280;32338;50.430;6.806;2023-04-08T03:40:11;65914.59;;;4.55;100.00
46614;BME280;32338;50.430;6.806;2023-04-08T03:42:39;65922.78;;;4.60;100.00
46614;BME280;32338;50.430;6.806;2023-04-08T03:45:06;65930.84;;;4.70;100.00
46614;BME280;32338;50.430;6.806;2023-04-08T03:47:33;65937.38;;;4.74;100.00
46614;BME280;32338;50.430;6.806;2023-04-08T03:50:00;65936.44;;;4.75;100.00
46614;BME280;32338;50.430;6.806;2023-04-08T03:52:26;65942.63;;;4.81;100.00
46614;BME280;32338;50.430;6.806;2023-04-08T03:54:53;65947.66;;;4.85;100.00
46614;BME280;32338;50.430;6.806;2023-04-08T03:57:20;65953.81;;;4.91;100.00
46614;BME280;32338;50.430;6.806;2023-04-08T03:59:48;65946.31;;;4.82;100.00
46614;BME280;32338;50.430;6.806;2023-04-08T04:02:14;65939.81;;;4.78;100.00
46614;BME280;32338;50.430;6.806;2023-04-08T04:04:41;65945.34;;;4.76;100.00
46614;BME280;32338;50.430;6.806;2023-04-08T04:07:08;65940.72;;;4.77;100.00
46614;BME280;32338;50.430;6.806;2023-04-08T04:09:34;65938.69;;;4.77;100.00
46614;BME280;32338;50.430;6.806;2023-04-08T04:12:01;65935.31;;;4.74;100.00
46614;BME280;32338;50.430;6.806;2023-04-08T04:14:28;65951.38;;;4.86;100.00
46614;BME280;32338;50.430;6.806;2023-04-08T04:16:56;65956.44;;;4.91;100.00
46614;BME280;32338;50.430;6.806;2023-04-08T04:19:22;65950.25;;;4.85;100.00
46614;BME280;32338;50.430;6.806;2023-04-08T04:21:49;65943.16;;;4.81;100.00
46614;BME280;32338;50.430;6.806;2023-04-08T04:24:16;65937.56;;;4.76;100.00
46614;BME280;32338;50.430;6.806;2023-04-08T04:26:42;65932.88;;;4.69;100.00
46614;BME280;32338;50.430;6.806;2023-04-08T04:29:09;65928.97;;;4.66;100.00
46614;BME280;32338;50.430;6.806;2023-04-08T04:31:35;65927.84;;;4.65;100.00
46614;BME280;32338;50.430;6.806;2023-04-08T04:34:03;65927.06;;;4.62;100.00
46614;BME280;32338;50.430;6.806;2023-04-08T04:36:30;65925.25;;;4.65;100.00
46614;BME280;32338;50.430;6.806;2023-04-08T04:38:57;65922.22;;;4.60;100.00
46614;BME280;32338;50.430;6.806;2023-04-08T04:41:24;65922.78;;;4.60;100.00
46614;BME280;32338;50.430;6.806;2023-04-08T04:43:51;65921.09;;;4.59;100.00
46614;BME280;32338;50.430;6.806;2023-04-08T04:46:18;65921.09;;;4.59;100.00
46614;BME280;32338;50.430;6.806;2023-04-08T04:48:44;65919.06;;;4.59;100.00
46614;BME280;32338;50.430;6.806;2023-04-08T04:51:12;65920.53;;;4.58;100.00
46614;BME280;32338;50.430;6.806;2023-04-08T04:53:39;65923.00;;;4.63;100.00
46614;BME280;32338;50.430;6.806;2023-04-08T04:56:06;65915.34;;;4.58;100.00
46614;BME280;32338;50.430;6.806;2023-04-08T04:58:33;65921.09;;;4.59;100.00
46614;BME280;32338;50.430;6.806;2023-04-08T05:01:00;65918.72;;;4.61;100.00
46614;BME280;32338;50.430;6.806;2023-04-08T05:03:26;65930.63;;;4.67;100.00
46614;BME280;32338;50.430;6.806;2023-04-08T05:05:53;65926.91;;;4.66;100.00
46614;BME280;32338;50.430;6.806;2023-04-08T05:08:21;65930.97;;;4.65;100.00
46614;BME280;32338;50.430;6.806;2023-04-08T05:10:48;65928.97;;;4.66;100.00
46614;BME280;32338;50.430;6.806;2023-04-08T05:13:15;65933.44;;;4.70;100.00
46614;BME280;32338;50.430;6.806;2023-04-08T05:15:42;65940.16;;;4.76;100.00
46614;BME280;32338;50.430;6.806;2023-04-08T05:18:09;65939.19;;;4.70;100.00
46614;BME280;32338;50.430;6.806;2023-04-08T05:20:36;65938.91;;;4.80;100.00
46614;BME280;32338;50.430;6.806;2023-04-08T05:23:03;65946.75;;;4.87;100.00
46614;BME280;32338;50.430;6.806;2023-04-08T05:25:31;65946.91;;;4.82;100.00
46614;BME280;32338;50.430;6.806;2023-04-08T05:27:57;65941.28;;;4.77;100.00
46614;BME280;32338;50.430;6.806;2023-04-08T05:30:24;65948.56;;;4.84;100.00
46614;BME280;32338;50.430;6.806;2023-04-08T05:32:51;65938.31;;;4.79;100.00
46614;BME280;32338;50.430;6.806;2023-04-08T05:35:17;65951.50;;;4.82;100.00
46614;BME280;32338;50.430;6.806;2023-04-08T05:37:44;65942.97;;;4.79;100.00
46614;BME280;32338;50.430;6.806;2023-04-08T05:40:11;65948.03;;;4.83;100.00
46614;BME280;32338;50.430;6.806;2023-04-08T05:42:39;65954.38;;;4.92;100.00
46614;BME280;32338;50.430;6.806;2023-04-08T05:45:07;65960.91;;;4.95;100.00
46614;BME280;32338;50.430;6.806;2023-04-08T05:47:34;65960.91;;;4.95;100.00
46614;BME280;32338;50.430;6.806;2023-04-08T05:50:00;65969.31;;;5.03;100.00
46614;BME280;32338;50.430;6.806;2023-04-08T05:52:27;65969.31;;;5.03;100.00
46614;BME280;32338;50.430;6.806;2023-04-08T05:54:54;65966.66;;;4.96;100.00
46614;BME280;32338;50.430;6.806;2023-04-08T05:57:20;65959.44;;;4.96;100.00
46614;BME280;32338;50.430;6.806;2023-04-08T05:59:48;65963.16;;;4.97;100.00
46614;BME280;32338;50.430;6.806;2023-04-08T06:02:15;65960.19;;;4.99;100.00
46614;BME280;32338;50.430;6.806;2023-04-08T06:04:41;65958.50;;;4.98;100.00
46614;BME280;32338;50.430;6.806;2023-04-08T06:07:08;65977.16;;;5.10;100.00
46614;BME280;32338;50.430;6.806;2023-04-08T06:09:35;65973.81;;;5.07;100.00
46614;BME280;32338;50.430;6.806;2023-04-08T06:12:02;65971.22;;;5.07;100.00
46614;BME280;32338;50.430;6.806;2023-04-08T06:14:29;65974.56;;;5.10;100.00
46614;BME280;32338;50.430;6.806;2023-04-08T06:16:57;65973.81;;;5.07;100.00
46614;BME280;32338;50.430;6.806;2023-04-08T06:19:23;65972.31;;;5.08;100.00
46614;BME280;32338;50.430;6.806;2023-04-08T06:21:50;65979.97;;;5.13;100.00
46614;BME280;32338;50.430;6.806;2023-04-08T06:24:17;65981.28;;;5.16;100.00
46614;BME280;32338;50.430;6.806;2023-04-08T06:26:43;65991.03;;;5.28;100.00
46614;BME280;32338;50.430;6.806;2023-04-08T06:29:10;65992.91;;;5.32;100.00
46614;BME280;32338;50.430;6.806;2023-04-08T06:31:36;65998.69;;;5.32;100.00
46614;BME280;32338;50.430;6.806;2023-04-08T06:34:04;66015.31;;;5.45;100.00
46614;BME280;32338;50.430;6.806;2023-04-08T06:36:31;66021.47;;;5.51;100.00
46614;BME280;32338;50.430;6.806;2023-04-08T06:38:57;66023.16;;;5.52;100.00
46614;BME280;32338;50.430;6.806;2023-04-08T06:41:24;66019.22;;;5.49;100.00
46614;BME280;32338;50.430;6.806;2023-04-08T06:43:51;66020.34;;;5.50;100.00
46614;BME280;32338;50.430;6.806;2023-04-08T06:46:17;66016.81;;;5.51;100.00
46614;BME280;32338;50.430;6.806;2023-04-08T06:48:44;66019.22;;;5.49;100.00
46614;BME280;32338;50.430;6.806;2023-04-08T06:51:12;66022.59;;;5.52;100.00
46614;BME280;32338;50.430;6.806;2023-04-08T06:53:38;66013.03;;;5.43;100.00
46614;BME280;32338;50.430;6.806;2023-04-08T06:56:05;66007.66;;;5.41;100.00
46614;BME280;32338;50.430;6.806;2023-04-08T06:58:32;66006.75;;;5.42;100.00
46614;BME280;32338;50.430;6.806;2023-04-08T07:00:59;66012.34;;;5.47;100.00
46614;BME280;32338;50.430;6.806;2023-04-08T07:03:27;66016.28;;;5.51;100.00
46614;BME280;32338;50.430;6.806;2023-04-08T07:05:54;66028.22;;;5.57;100.00
46614;BME280;32338;50.430;6.806;2023-04-08T07:08:22;66030.03;;;5.54;100.00
46614;BME280;32338;50.430;6.806;2023-04-08T07:10:51;66015.16;;;5.50;100.00
46614;BME280;32338;50.430;6.806;2023-04-08T07:13:18;66017.75;;;5.50;100.00
46614;BME280;32338;50.430;6.806;2023-04-08T07:15:44;66040.38;;;5.73;100.00
46614;BME280;32338;50.430;6.806;2023-04-08T07:18:11;66036.25;;;5.67;100.00
46614;BME280;32338;50.430;6.806;2023-04-08T07:20:38;66043.91;;;5.72;100.00
46614;BME280;32338;50.430;6.806;2023-04-08T07:23:04;66040.34;;;5.66;100.00
46614;BME280;32338;50.430;6.806;2023-04-08T07:25:33;66059.06;;;5.85;100.00
46614;BME280;32338;50.430;6.806;2023-04-08T07:28:00;66057.22;;;5.89;100.00
46614;BME280;32338;50.430;6.806;2023-04-08T07:30:26;66075.47;;;5.96;100.00
46614;BME280;32338;50.430;6.806;2023-04-08T07:32:53;66064.31;;;5.93;100.00
46614;BME280;32338;50.430;6.806;2023-04-08T07:35:20;66056.44;;;5.85;100.00
46614;BME280;32338;50.430;6.806;2023-04-08T07:37:48;66078.88;;;5.99;100.00
46614;BME280;32338;50.430;6.806;2023-04-08T07:40:15;66083.34;;;6.03;100.00
46614;BME280;32338;50.430;6.806;2023-04-08T07:42:43;66095.22;;;6.21;100.00
46614;BME280;32338;50.430;6.806;2023-04-08T07:45:10;66112.97;;;6.35;100.00
46614;BME280;32338;50.430;6.806;2023-04-08T07:47:36;66096.34;;;6.22;100.00
46614;BME280;32338;50.430;6.806;2023-04-08T07:50:04;66092.75;;;6.16;100.00
46614;BME280;32338;50.430;6.806;2023-04-08T07:52:31;66095.75;;;6.22;100.00
46614;BME280;32338;50.430;6.806;2023-04-08T07:54:57;66118.78;;;6.43;100.00
46614;BME280;32338;50.430;6.806;2023-04-08T07:57:24;66126.06;;;6.49;100.00
46614;BME280;32338;50.430;6.806;2023-04-08T07:59:52;66132.81;;;6.56;100.00
46614;BME280;32338;50.430;6.806;2023-04-08T08:02:19;66135.06;;;6.58;100.00
46614;BME280;32338;50.430;6.806;2023-04-08T08:04:46;66128.53;;;6.54;100.00
46614;BME280;32338;50.430;6.806;2023-04-08T08:07:12;66113.72;;;6.38;100.00
46614;BME280;32338;50.430;6.806;2023-04-08T08:09:39;66113.50;;;6.36;100.00
46614;BME280;32338;50.430;6.806;2023-04-08T08:12:06;66126.44;;;6.47;100.00
46614;BME280;32338;50.430;6.806;2023-04-08T08:14:32;66139.53;;;6.62;100.00
46614;BME280;32338;50.430;6.806;2023-04-08T08:17:02;66150.56;;;6.70;100.00
46614;BME280;32338;50.430;6.806;2023-04-08T08:19:29;66161.09;;;6.84;100.00
46614;BME280;32338;50.430;6.806;2023-04-08T08:21:55;66166.50;;;6.87;100.00
46614;BME280;32338;50.430;6.806;2023-04-08T08:24:22;66189.88;;;7.06;100.00
46614;BME280;32338;50.430;6.806;2023-04-08T08:26:50;66200.56;;;7.16;100.00
46614;BME280;32338;50.430;6.806;2023-04-08T08:29:16;66204.91;;;7.24;100.00
46614;BME280;32338;50.430;6.806;2023-04-08T08:31:43;66233.69;;;7.46;100.00
46614;BME280;32338;50.430;6.806;2023-04-08T08:34:11;66248.72;;;7.65;100.00
46614;BME280;32338;50.430;6.806;2023-04-08T08:36:37;66234.88;;;7.54;100.00
46614;BME280;32338;50.430;6.806;2023-04-08T08:39:04;66218.72;;;7.35;100.00
46614;BME280;32338;50.430;6.806;2023-04-08T08:41:34;66235.41;;;7.47;100.00
46614;BME280;32338;50.430;6.806;2023-04-08T08:44:04;66251.13;;;7.62;100.00
46614;BME280;32338;50.430;6.806;2023-04-08T08:46:31;66247.75;;;7.59;100.00
46614;BME280;32338;50.430;6.806;2023-04-08T08:48:57;66241.78;;;7.56;100.00
46614;BME280;32338;50.430;6.806;2023-04-08T08:51:25;66247.03;;;7.63;100.00
46614;BME280;32338;50.430;6.806;2023-04-08T08:53:53;66256.41;;;7.69;100.00
46614;BME280;32338;50.430;6.806;2023-04-08T08:56:19;66271.00;;;7.83;100.00
46614;BME280;32338;50.430;6.806;2023-04-08T08:58:46;66267.28;;;7.82;100.00
46614;BME280;32338;50.430;6.806;2023-04-08T09:01:29;66266.69;;;7.81;100.00
46614;BME280;32338;50.430;6.806;2023-04-08T09:04:11;66277.75;;;7.89;100.00
46614;BME280;32338;50.430;6.806;2023-04-08T09:06:39;66282.44;;;7.95;100.00
46614;BME280;32338;50.430;6.806;2023-04-08T09:09:06;66292.16;;;8.00;100.00
46614;BME280;32338;50.430;6.806;2023-04-08T09:11:36;66295.53;;;8.03;100.00
46614;BME280;32338;50.430;6.806;2023-04-08T09:14:03;66282.06;;;7.90;100.00
46614;BME280;32338;50.430;6.806;2023-04-08T09:16:31;66272.88;;;7.87;100.00
46614;BME280;32338;50.430;6.806;2023-04-08T09:19:07;66285.25;;;7.98;100.00
46614;BME280;32338;50.430;6.806;2023-04-08T09:21:36;66264.47;;;7.79;100.00
46614;BME280;32338;50.430;6.806;2023-04-08T09:24:06;66276.97;;;7.86;100.00
46614;BME280;32338;50.430;6.806;2023-04-08T09:26:36;66267.63;;;7.79;100.00
46614;BME280;32338;50.430;6.806;2023-04-08T09:29:04;66272.50;;;7.82;100.00
46614;BME280;32338;50.430;6.806;2023-04-08T09:31:32;66285.41;;;7.93;100.00
46614;BME280;32338;50.430;6.806;2023-04-08T09:34:08;66308.25;;;8.12;100.00
46614;BME280;32338;50.430;6.806;2023-04-08T09:36:35;66332.50;;;8.41;100.00
46614;BME280;32338;50.430;6.806;2023-04-08T09:39:02;66327.78;;;8.35;100.00
46614;BME280;32338;50.430;6.806;2023-04-08T09:41:33;66324.97;;;8.32;100.00
46614;BME280;32338;50.430;6.806;2023-04-08T09:44:02;66316.53;;;8.24;100.00
46614;BME280;32338;50.430;6.806;2023-04-08T09:46:32;66336.59;;;8.40;100.00
46614;BME280;32338;50.430;6.806;2023-04-08T09:49:04;66350.50;;;8.58;100.00
46614;BME280;32338;50.430;6.806;2023-04-08T09:51:32;66348.06;;;8.53;100.00
46614;BME280;32338;50.430;6.806;2023-04-08T09:54:07;66335.09;;;8.41;100.00
46614;BME280;32338;50.430;6.806;2023-04-08T09:56:40;66314.66;;;8.20;100.00
46614;BME280;32338;50.430;6.806;2023-04-08T09:59:11;66338.13;;;8.47;100.00
46614;BME280;32338;50.430;6.806;2023-04-08T10:01:44;66355.34;;;8.60;100.00
46614;BME280;32338;50.430;6.806;2023-04-08T10:04:14;66383.50;;;8.86;100.00
46614;BME280;32338;50.430;6.806;2023-04-08T10:06:48;66379.00;;;8.82;100.00
46614;BME280;32338;50.430;6.806;2023-04-08T10:09:19;66380.69;;;8.83;100.00
46614;BME280;32338;50.430;6.806;2023-04-08T10:11:48;66378.81;;;8.79;100.00
46614;BME280;32338;50.430;6.806;2023-04-08T10:14:15;66385.94;;;8.90;100.00
46614;BME280;32338;50.430;6.806;2023-04-08T10:16:42;66389.69;;;8.91;100.00
46614;BME280;32338;50.430;6.806;2023-04-08T10:19:36;66411.84;;;9.14;100.00
46614;BME280;32338;50.430;6.806;2023-04-08T10:27:53;66502.66;;;10.00;100.00
46614;BME280;32338;50.430;6.806;2023-04-08T10:30:37;66524.97;;;10.11;100.00
46614;BME280;32338;50.430;6.806;2023-04-08T10:33:09;66545.28;;;10.36;100.00
46614;BME280;32338;50.430;6.806;2023-04-08T10:35:37;66544.13;;;10.35;100.00
46614;BME280;32338;50.430;6.806;2023-04-08T10:38:06;66558.59;;;10.46;100.00
46614;BME280;32338;50.430;6.806;2023-04-08T10:40:35;66531.53;;;10.21;100.00
46614;BME280;32338;50.430;6.806;2023-04-08T10:43:04;66490.81;;;9.82;100.00
46614;BME280;32338;50.430;6.806;2023-04-08T10:45:31;66483.88;;;9.80;100.00
46614;BME280;32338;50.430;6.806;2023-04-08T10:48:11;66485.94;;;9.80;100.00
46614;BME280;32338;50.430;6.806;2023-04-08T10:50:37;66485.94;;;9.80;100.00
46614;BME280;32338;50.430;6.806;2023-04-08T10:53:05;66477.84;;;9.70;100.00
46614;BME280;32338;50.430;6.806;2023-04-08T10:55:32;66470.16;;;9.65;100.00
46614;BME280;32338;50.430;6.806;2023-04-08T10:58:06;66499.44;;;9.92;100.00
46614;BME280;32338;50.430;6.806;2023-04-08T11:00:34;66534.16;;;10.21;100.00
46614;BME280;32338;50.430;6.806;2023-04-08T11:03:02;66528.16;;;10.18;100.00
46614;BME280;32338;50.430;6.806;2023-04-08T11:05:29;66551.28;;;10.40;100.00
46614;BME280;32338;50.430;6.806;2023-04-08T11:07:57;66529.84;;;10.20;100.00
46614;BME280;32338;50.430;6.806;2023-04-08T11:10:24;66519.16;;;10.10;100.00
46614;BME280;32338;50.430;6.806;2023-04-08T11:12:53;66529.28;;;10.19;100.00
46614;BME280;32338;50.430;6.806;2023-04-08T11:15:23;66554.28;;;10.45;100.00
46614;BME280;32338;50.430;6.806;2023-04-08T11:17:50;66550.34;;;10.41;100.00
46614;BME280;32338;50.430;6.806;2023-04-08T11:20:18;66559.53;;;10.45;100.00
46614;BME280;32338;50.430;6.806;2023-04-08T11:22:46;66524.56;;;10.13;100.00
46614;BME280;32338;50.430;6.806;2023-04-08T11:25:13;66515.41;;;10.09;100.00
46614;BME280;32338;50.430;6.806;2023-04-08T11:27:45;66537.00;;;10.24;100.00
46614;BME280;32338;50.430;6.806;2023-04-08T11:30:13;66521.41;;;10.12;100.00
46614;BME280;32338;50.430;6.806;2023-04-08T11:32:41;66524.03;;;10.12;100.00
46614;BME280;32338;50.430;6.806;2023-04-08T11:35:08;66520.28;;;10.11;100.00
46614;BME280;32338;50.430;6.806;2023-04-08T11:37:38;66485.00;;;9.81;100.00
46614;BME280;32338;50.430;6.806;2023-04-08T11:40:07;66457.78;;;9.54;100.00
46614;BME280;32338;50.430;6.806;2023-04-08T11:42:34;66433.00;;;9.31;100.00
46614;BME280;32338;50.430;6.806;2023-04-08T11:45:01;66426.09;;;9.30;100.00
46614;BME280;32338;50.430;6.806;2023-04-08T11:47:30;66401.28;;;9.00;100.00
46614;BME280;32338;50.430;6.806;2023-04-08T11:49:59;66437.16;;;9.37;100.00
46614;BME280;32338;50.430;6.806;2023-04-08T11:52:43;66442.22;;;9.42;100.00
46614;BME280;32338;50.430;6.806;2023-04-08T11:55:10;66441.66;;;9.41;100.00
46614;BME280;32338;50.430;6.806;2023-04-08T11:57:37;66437.34;;;9.40;100.00
46614;BME280;32338;50.430;6.806;2023-04-08T12:00:05;66438.66;;;9.44;100.00
46614;BME280;32338;50.430;6.806;2023-04-08T12:02:36;66455.53;;;9.52;100.00
46614;BME280;32338;50.430;6.806;2023-04-08T12:05:04;66497.56;;;9.95;100.00
46614;BME280;32338;50.430;6.806;2023-04-08T12:07:32;66511.47;;;10.05;100.00
46614;BME280;32338;50.430;6.806;2023-04-08T12:09:58;66552.59;;;10.43;100.00
46614;BME280;32338;50.430;6.806;2023-04-08T12:12:25;66559.19;;;10.47;100.00
46614;BME280;32338;50.430;6.806;2023-04-08T12:14:52;66513.91;;;10.03;100.00
46614;BME280;32338;50.430;6.806;2023-04-08T12:17:19;66506.00;;;9.96;100.00
46614;BME280;32338;50.430;6.806;2023-04-08T12:19:45;66516.53;;;10.10;100.00
46614;BME280;32338;50.430;6.806;2023-04-08T12:22:13;66482.00;;;9.83;100.00
46614;BME280;32338;50.430;6.806;2023-04-08T12:24:40;66479.53;;;9.71;100.00
46614;BME280;32338;50.430;6.806;2023-04-08T12:27:07;66455.38;;;9.56;100.00
46614;BME280;32338;50.430;6.806;2023-04-08T12:29:34;66466.44;;;9.64;100.00
46614;BME280;32338;50.430;6.806;2023-04-08T12:32:00;66483.66;;;9.78;100.00
46614;BME280;32338;50.430;6.806;2023-04-08T12:34:28;66459.28;;;9.53;100.00
46614;BME280;32338;50.430;6.806;2023-04-08T12:36:55;66453.84;;;9.50;100.00
46614;BME280;32338;50.430;6.806;2023-04-08T12:39:24;66436.19;;;9.32;100.00
46614;BME280;32338;50.430;6.806;2023-04-08T12:41:51;66424.75;;;9.26;100.00
46614;BME280;32338;50.430;6.806;2023-04-08T12:44:17;66432.25;;;9.28;100.00
46614;BME280;32338;50.430;6.806;2023-04-08T12:46:45;66423.63;;;9.25;100.00
46614;BME280;32338;50.430;6.806;2023-04-08T12:49:11;66443.34;;;9.43;100.00
46614;BME280;32338;50.430;6.806;2023-04-08T12:51:38;66470.16;;;9.65;100.00
46614;BME280;32338;50.430;6.806;2023-04-08T12:54:05;66469.41;;;9.62;100.00
46614;BME280;32338;50.430;6.806;2023-04-08T12:56:33;66416.16;;;9.23;100.00
46614;BME280;32338;50.430;6.806;2023-04-08T12:58:59;66404.34;;;9.12;100.00
46614;BME280;32338;50.430;6.806;2023-04-08T13:01:26;66418.38;;;9.18;100.00
46614;BME280;32338;50.430;6.806;2023-04-08T13:03:54;66445.19;;;9.40;100.00
46614;BME280;32338;50.430;6.806;2023-04-08T13:06:21;66463.00;;;9.54;100.00
46614;BME280;32338;50.430;6.806;2023-04-08T13:08:54;66453.84;;;9.50;100.00
46614;BME280;32338;50.430;6.806;2023-04-08T13:11:25;66456.84;;;9.55;100.00